Mansura, Louisiana
Current Conditions -  °F | °C
As of 9:53 AM on Wednesday 22 Oct 2014 (Local Time) from KESF Reporting Station
Clear Clear  
Wind Chill: 67°   Ceiling: Unl
Heat Index: 67°   Visibility: 10mi
Dew Point: 58°   Wind: 6mph
Humidity: 73%   Direction: NA
Pressure: 30.14"   Gusts: NA
Location:  31.06°N, 92.05°W
Report Text: KESF 221453Z AUTO VRB05KT 10SM CLR 19/14 A3014 RMK AO2 SLP206 T01940144 53014
Loading
Personal Weather Stations






























Interactive Weather Map
Tropical Storm Tracking
New forecast layout! Learn more

10-Day Weather Forecast

Advertisements
Track Severe Weather on mobile